Flight Track Log - Related Links

Times and Time Zones

All times are in EDT time to prevent confusion due to time zone crossing. See the RLI811 flight status page for this flight to view local times or setup timezone preferences in your user account.

Time Position Orientation Groundspeed Altitude Reporting Facility
EDT Latitude Longitude Course Direction KTS MPH feet Rate Location/Type
Mon 05:35:05 AM 41.4694 -73.0386 82° East 203 234 6,900  Level Boston Center
Mon 05:36:05 AM 41.4925 -72.9694 66° East 203 234 6,900 50 Level Boston Center
Mon 05:37:05 AM 41.5178 -72.9003 64° Northeast 207 238 7,000 49 Climbing Boston Center
Mon 05:38:07 AM 41.5411 -72.8339 65° Northeast 207 238 7,000  Level Boston Center
Mon 05:39:07 AM 41.5622 -72.7592 69° East 207 238 7,000  Level Boston Center
Mon 05:40:00 AM 41.4748 -72.4782 82° East  Level Estimated
Mon 05:40:10 AM 41.5811 -72.6844 71° East 209 241 7,000  Level Boston Center
Mon 05:41:09 AM 41.6083 -72.6150 62° Northeast 209 241 7,000  Level Boston Center
Mon 05:42:10 AM 41.6333 -72.5456 64° Northeast 208 239 7,000 -50 Level Boston Center
Mon 05:43:10 AM 41.6458 -72.4733 77° East 204 235 6,900  Descending Boston Center
Mon 05:44:09 AM 41.6500 -72.3956 86° East 202 232 7,000 50 Climbing Boston Center
Mon 05:45:11 AM 41.6522 -72.3233 88° East 202 232 7,000  Level Boston Center
Mon 05:45:47 AM 41.6606 -72.2650 79° East 202 232 7,000  Level Boston Center
Mon 05:46:19 AM 41.6583 -72.2344 96° East 202 232 7,000  Level Boston Center
Mon 05:47:25 AM 41.6664 -72.1511 83° East 202 232 7,000  Level Boston Center
Mon 05:48:25 AM 41.6725 -72.0733 84° East 207 238 7,000  Level Boston Center
Mon 05:49:32 AM 41.6783 -71.9869 85° East 207 238 7,000  Level Boston Center
Mon 05:50:31 AM 41.6822 -71.9119 86° East 208 239 7,000  Level Boston Center
Mon 05:51:32 AM 41.6881 -71.8369 84° East 206 237 7,000  Level Boston Center
Mon 05:52:32 AM 41.6939 -71.7533 85° East 207 238 7,000  Level Boston Center
Mon 05:53:33 AM 41.6997 -71.6783 84° East 207 238 7,000  Level Boston Center
Mon 05:54:36 AM 41.7033 -71.6031 86° East 206 237 7,000  Level Boston Center
Mon 05:55:37 AM 41.7089 -71.5253 85° East 205 236 7,000  Level Boston Center
Mon 05:56:37 AM 41.7144 -71.4472 85° East 206 237 7,000  Level Boston Center
Mon 05:57:38 AM 41.7117 -71.3722 93° East 191 220 7,000  Level Boston Center
Mon 05:58:38 AM 41.7089 -71.2972 93° East 204 235 7,000  Level Boston Center
Mon 05:59:39 AM 41.7061 -71.2222 93° East 201 231 7,000 -200 Level Boston Center
Mon 06:00:38 AM 41.7011 -71.1472 95° East 207 238 6,600 -407 Descending Boston Center
Mon 06:02:00 AM 41.6957 -71.0611 95° East  Level FlightAware Approximate
Mon 06:09:00 AM 41.6753 -70.6196 98° East  Level FlightAware Approximate
Mon 06:10:00 AM 41.6690 -70.5569 98° East  Level FlightAware Approximate
Mon 06:11:00 AM 41.6667 -70.4939 90° East  Level FlightAware Approximate
Mon 06:12:00 AM 41.6667 -70.4307 90° East  Level FlightAware Approximate
Mon 06:13:00 AM 41.6667 -70.3674 90° East  Level FlightAware Approximate
Mon 06:14:00 AM 41.6667 -70.3042 90° East  Level FlightAware Approximate
Mon 06:15:00 AM 41.6693 -70.2804 90° East  Level Estimated
Mon 06:16:00 AM 41.6693 -70.2804 90° East  Level Estimated
Mon 06:17:00 AM 41.6693 -70.2804 90° East  Level Estimated
Mon 06:18:00 AM 41.6693 -70.2804 90° East  Level Estimated
Mon 06:19:00 AM 41.6693 -70.2804 90° East  Level Estimated
Mon 06:20:00 AM 41.6693 -70.2804 90° East  Level Estimated

Login

Don't have an account? Register now (free) for customized features, flight alerts, and more!